sensor_id;sensor_type;location;lat;lon;timestamp;P1;durP1;ratioP1;P2;durP2;ratioP2
10805;SDS011;5455;53.224;6.000;2023-04-06T00:01:11;5.50;;;3.70;;
10805;SDS011;5455;53.224;6.000;2023-04-06T00:03:38;7.63;;;3.67;;
10805;SDS011;5455;53.224;6.000;2023-04-06T00:06:05;4.57;;;3.70;;
10805;SDS011;5455;53.224;6.000;2023-04-06T00:08:36;4.43;;;3.53;;
10805;SDS011;5455;53.224;6.000;2023-04-06T00:11:03;5.57;;;3.63;;
10805;SDS011;5455;53.224;6.000;2023-04-06T00:13:30;7.10;;;3.87;;
10805;SDS011;5455;53.224;6.000;2023-04-06T00:15:57;5.83;;;3.20;;
10805;SDS011;5455;53.224;6.000;2023-04-06T00:18:24;6.67;;;3.30;;
10805;SDS011;5455;53.224;6.000;2023-04-06T00:20:51;4.57;;;3.60;;
10805;SDS011;5455;53.224;6.000;2023-04-06T00:23:19;5.70;;;3.43;;
10805;SDS011;5455;53.224;6.000;2023-04-06T00:25:46;5.63;;;3.20;;
10805;SDS011;5455;53.224;6.000;2023-04-06T00:28:13;4.43;;;3.60;;
10805;SDS011;5455;53.224;6.000;2023-04-06T00:30:41;4.67;;;3.33;;
10805;SDS011;5455;53.224;6.000;2023-04-06T00:33:08;5.87;;;3.30;;
10805;SDS011;5455;53.224;6.000;2023-04-06T00:35:35;6.43;;;3.70;;
10805;SDS011;5455;53.224;6.000;2023-04-06T00:38:02;5.53;;;3.33;;
10805;SDS011;5455;53.224;6.000;2023-04-06T00:40:29;4.70;;;3.47;;
10805;SDS011;5455;53.224;6.000;2023-04-06T00:42:57;4.17;;;3.27;;
10805;SDS011;5455;53.224;6.000;2023-04-06T00:45:24;4.97;;;3.37;;
10805;SDS011;5455;53.224;6.000;2023-04-06T00:47:55;5.27;;;3.50;;
10805;SDS011;5455;53.224;6.000;2023-04-06T00:50:22;5.47;;;3.27;;
10805;SDS011;5455;53.224;6.000;2023-04-06T00:52:50;4.43;;;3.10;;
10805;SDS011;5455;53.224;6.000;2023-04-06T00:55:22;4.27;;;3.30;;
10805;SDS011;5455;53.224;6.000;2023-04-06T00:57:50;4.93;;;2.97;;
10805;SDS011;5455;53.224;6.000;2023-04-06T01:00:17;4.63;;;3.63;;
10805;SDS011;5455;53.224;6.000;2023-04-06T01:02:46;4.07;;;3.07;;
10805;SDS011;5455;53.224;6.000;2023-04-06T01:05:18;4.30;;;3.17;;
10805;SDS011;5455;53.224;6.000;2023-04-06T01:07:50;4.67;;;3.60;;
10805;SDS011;5455;53.224;6.000;2023-04-06T01:10:28;5.43;;;3.40;;
10805;SDS011;5455;53.224;6.000;2023-04-06T01:13:06;3.90;;;2.80;;
10805;SDS011;5455;53.224;6.000;2023-04-06T01:16:01;5.57;;;2.97;;
10805;SDS011;5455;53.224;6.000;2023-04-06T01:18:43;5.37;;;2.90;;
10805;SDS011;5455;53.224;6.000;2023-04-06T01:21:15;4.43;;;3.23;;
10805;SDS011;5455;53.224;6.000;2023-04-06T01:24:04;3.97;;;3.23;;
10805;SDS011;5455;53.224;6.000;2023-04-06T01:26:43;6.57;;;3.23;;
10805;SDS011;5455;53.224;6.000;2023-04-06T01:29:11;3.93;;;3.23;;
10805;SDS011;5455;53.224;6.000;2023-04-06T01:31:38;4.77;;;3.13;;
10805;SDS011;5455;53.224;6.000;2023-04-06T01:34:06;3.80;;;3.10;;
10805;SDS011;5455;53.224;6.000;2023-04-06T01:36:33;6.60;;;3.50;;
10805;SDS011;5455;53.224;6.000;2023-04-06T01:39:16;5.20;;;3.20;;
10805;SDS011;5455;53.224;6.000;2023-04-06T01:41:43;4.60;;;3.20;;
10805;SDS011;5455;53.224;6.000;2023-04-06T01:44:10;4.93;;;3.13;;
10805;SDS011;5455;53.224;6.000;2023-04-06T01:46:38;5.80;;;3.33;;
10805;SDS011;5455;53.224;6.000;2023-04-06T01:49:07;3.40;;;2.80;;
10805;SDS011;5455;53.224;6.000;2023-04-06T01:51:36;4.20;;;2.83;;
10805;SDS011;5455;53.224;6.000;2023-04-06T01:54:06;4.07;;;3.03;;
10805;SDS011;5455;53.224;6.000;2023-04-06T01:56:52;4.60;;;3.33;;
10805;SDS011;5455;53.224;6.000;2023-04-06T01:59:33;6.50;;;3.10;;
10805;SDS011;5455;53.224;6.000;2023-04-06T02:02:06;5.13;;;2.83;;
10805;SDS011;5455;53.224;6.000;2023-04-06T02:04:34;3.30;;;2.90;;
10805;SDS011;5455;53.224;6.000;2023-04-06T02:07:08;4.13;;;3.47;;
10805;SDS011;5455;53.224;6.000;2023-04-06T02:09:36;3.60;;;2.70;;
10805;SDS011;5455;53.224;6.000;2023-04-06T02:12:07;4.13;;;3.10;;
10805;SDS011;5455;53.224;6.000;2023-04-06T02:14:34;4.83;;;2.90;;
10805;SDS011;5455;53.224;6.000;2023-04-06T02:17:01;3.83;;;3.07;;
10805;SDS011;5455;53.224;6.000;2023-04-06T02:19:29;3.20;;;2.67;;
10805;SDS011;5455;53.224;6.000;2023-04-06T02:21:56;5.00;;;3.40;;
10805;SDS011;5455;53.224;6.000;2023-04-06T02:24:23;4.87;;;2.90;;
10805;SDS011;5455;53.224;6.000;2023-04-06T02:26:50;3.60;;;3.10;;
10805;SDS011;5455;53.224;6.000;2023-04-06T02:29:18;3.70;;;2.87;;
10805;SDS011;5455;53.224;6.000;2023-04-06T02:31:47;3.90;;;3.00;;
10805;SDS011;5455;53.224;6.000;2023-04-06T02:34:14;6.07;;;3.53;;
10805;SDS011;5455;53.224;6.000;2023-04-06T02:36:48;4.70;;;3.33;;
10805;SDS011;5455;53.224;6.000;2023-04-06T02:39:15;3.67;;;2.87;;
10805;SDS011;5455;53.224;6.000;2023-04-06T02:41:42;4.07;;;3.30;;
10805;SDS011;5455;53.224;6.000;2023-04-06T02:44:11;4.63;;;3.03;;
10805;SDS011;5455;53.224;6.000;2023-04-06T02:46:42;4.37;;;2.90;;
10805;SDS011;5455;53.224;6.000;2023-04-06T02:49:09;5.23;;;3.33;;
10805;SDS011;5455;53.224;6.000;2023-04-06T02:51:36;3.73;;;3.20;;
10805;SDS011;5455;53.224;6.000;2023-04-06T02:54:16;4.37;;;3.20;;
10805;SDS011;5455;53.224;6.000;2023-04-06T02:56:43;3.37;;;2.90;;
10805;SDS011;5455;53.224;6.000;2023-04-06T02:59:11;6.43;;;3.60;;
10805;SDS011;5455;53.224;6.000;2023-04-06T03:01:43;6.07;;;2.97;;
10805;SDS011;5455;53.224;6.000;2023-04-06T03:04:10;5.60;;;3.37;;
10805;SDS011;5455;53.224;6.000;2023-04-06T03:06:38;4.67;;;3.10;;
10805;SDS011;5455;53.224;6.000;2023-04-06T03:09:15;3.40;;;3.07;;
10805;SDS011;5455;53.224;6.000;2023-04-06T03:11:43;4.27;;;2.93;;
10805;SDS011;5455;53.224;6.000;2023-04-06T03:14:11;3.40;;;3.10;;
10805;SDS011;5455;53.224;6.000;2023-04-06T03:16:37;3.90;;;2.90;;
10805;SDS011;5455;53.224;6.000;2023-04-06T03:19:04;4.23;;;3.13;;
10805;SDS011;5455;53.224;6.000;2023-04-06T03:21:34;3.20;;;2.90;;
10805;SDS011;5455;53.224;6.000;2023-04-06T03:24:09;6.37;;;3.13;;
10805;SDS011;5455;53.224;6.000;2023-04-06T03:26:36;4.63;;;3.40;;
10805;SDS011;5455;53.224;6.000;2023-04-06T03:29:05;4.77;;;3.30;;
10805;SDS011;5455;53.224;6.000;2023-04-06T03:31:34;4.13;;;3.00;;
10805;SDS011;5455;53.224;6.000;2023-04-06T03:34:07;5.23;;;3.20;;
10805;SDS011;5455;53.224;6.000;2023-04-06T03:36:35;5.13;;;2.97;;
10805;SDS011;5455;53.224;6.000;2023-04-06T03:39:03;4.60;;;3.20;;
10805;SDS011;5455;53.224;6.000;2023-04-06T03:41:33;4.00;;;3.37;;
10805;SDS011;5455;53.224;6.000;2023-04-06T03:44:07;5.17;;;3.50;;
10805;SDS011;5455;53.224;6.000;2023-04-06T03:46:34;4.53;;;3.37;;
10805;SDS011;5455;53.224;6.000;2023-04-06T03:49:01;4.10;;;3.30;;
10805;SDS011;5455;53.224;6.000;2023-04-06T03:51:29;4.33;;;3.30;;
10805;SDS011;5455;53.224;6.000;2023-04-06T03:53:56;4.20;;;3.70;;
10805;SDS011;5455;53.224;6.000;2023-04-06T03:56:25;6.73;;;3.87;;
10805;SDS011;5455;53.224;6.000;2023-04-06T03:58:53;6.10;;;3.60;;
10805;SDS011;5455;53.224;6.000;2023-04-06T04:01:20;5.23;;;3.70;;
10805;SDS011;5455;53.224;6.000;2023-04-06T04:03:47;3.60;;;3.27;;
10805;SDS011;5455;53.224;6.000;2023-04-06T04:06:17;3.87;;;3.50;;
10805;SDS011;5455;53.224;6.000;2023-04-06T04:08:45;5.17;;;3.30;;
10805;SDS011;5455;53.224;6.000;2023-04-06T04:11:12;4.73;;;3.97;;
10805;SDS011;5455;53.224;6.000;2023-04-06T04:13:39;5.70;;;3.43;;
10805;SDS011;5455;53.224;6.000;2023-04-06T04:16:07;4.47;;;3.70;;
10805;SDS011;5455;53.224;6.000;2023-04-06T04:18:34;5.00;;;3.60;;
10805;SDS011;5455;53.224;6.000;2023-04-06T04:21:05;5.37;;;3.60;;
10805;SDS011;5455;53.224;6.000;2023-04-06T04:23:32;4.53;;;3.30;;
10805;SDS011;5455;53.224;6.000;2023-04-06T04:26:02;5.37;;;3.57;;
10805;SDS011;5455;53.224;6.000;2023-04-06T04:28:29;5.00;;;3.50;;
10805;SDS011;5455;53.224;6.000;2023-04-06T04:30:57;6.67;;;3.67;;
10805;SDS011;5455;53.224;6.000;2023-04-06T04:33:24;5.33;;;3.73;;
10805;SDS011;5455;53.224;6.000;2023-04-06T04:35:54;4.00;;;3.60;;
10805;SDS011;5455;53.224;6.000;2023-04-06T04:38:26;7.83;;;3.70;;
10805;SDS011;5455;53.224;6.000;2023-04-06T04:40:56;4.33;;;3.53;;
10805;SDS011;5455;53.224;6.000;2023-04-06T04:43:23;7.70;;;4.00;;
10805;SDS011;5455;53.224;6.000;2023-04-06T04:45:51;5.37;;;3.70;;
10805;SDS011;5455;53.224;6.000;2023-04-06T04:48:30;6.63;;;3.90;;
10805;SDS011;5455;53.224;6.000;2023-04-06T04:51:01;6.17;;;4.13;;
10805;SDS011;5455;53.224;6.000;2023-04-06T04:53:39;4.47;;;3.70;;
10805;SDS011;5455;53.224;6.000;2023-04-06T04:56:16;5.53;;;3.83;;
10805;SDS011;5455;53.224;6.000;2023-04-06T04:58:46;5.33;;;4.40;;
10805;SDS011;5455;53.224;6.000;2023-04-06T05:01:14;5.23;;;4.03;;
10805;SDS011;5455;53.224;6.000;2023-04-06T05:03:43;4.00;;;3.60;;
10805;SDS011;5455;53.224;6.000;2023-04-06T05:06:13;6.77;;;3.90;;
10805;SDS011;5455;53.224;6.000;2023-04-06T05:08:42;5.10;;;4.00;;
10805;SDS011;5455;53.224;6.000;2023-04-06T05:11:09;7.20;;;4.23;;
10805;SDS011;5455;53.224;6.000;2023-04-06T05:13:42;6.70;;;4.57;;
10805;SDS011;5455;53.224;6.000;2023-04-06T05:16:20;8.27;;;4.70;;
10805;SDS011;5455;53.224;6.000;2023-04-06T05:18:49;6.27;;;4.63;;
10805;SDS011;5455;53.224;6.000;2023-04-06T05:21:16;7.57;;;4.57;;
10805;SDS011;5455;53.224;6.000;2023-04-06T05:23:55;10.23;;;4.60;;
10805;SDS011;5455;53.224;6.000;2023-04-06T05:26:23;6.63;;;4.83;;
10805;SDS011;5455;53.224;6.000;2023-04-06T05:28:54;6.20;;;4.23;;
10805;SDS011;5455;53.224;6.000;2023-04-06T05:31:23;5.27;;;4.33;;
10805;SDS011;5455;53.224;6.000;2023-04-06T05:33:50;8.97;;;4.37;;
10805;SDS011;5455;53.224;6.000;2023-04-06T05:36:28;6.63;;;4.33;;
10805;SDS011;5455;53.224;6.000;2023-04-06T05:38:55;6.23;;;4.57;;
10805;SDS011;5455;53.224;6.000;2023-04-06T05:41:33;6.20;;;4.43;;
10805;SDS011;5455;53.224;6.000;2023-04-06T05:44:00;8.27;;;5.03;;
10805;SDS011;5455;53.224;6.000;2023-04-06T05:46:28;5.60;;;4.00;;
10805;SDS011;5455;53.224;6.000;2023-04-06T05:48:58;7.17;;;4.33;;
10805;SDS011;5455;53.224;6.000;2023-04-06T05:51:29;6.87;;;4.67;;
10805;SDS011;5455;53.224;6.000;2023-04-06T05:53:56;5.23;;;3.97;;
10805;SDS011;5455;53.224;6.000;2023-04-06T05:56:25;8.03;;;4.90;;
10805;SDS011;5455;53.224;6.000;2023-04-06T05:58:53;6.57;;;4.47;;
10805;SDS011;5455;53.224;6.000;2023-04-06T06:01:26;4.77;;;4.27;;
10805;SDS011;5455;53.224;6.000;2023-04-06T06:03:53;6.57;;;4.00;;
10805;SDS011;5455;53.224;6.000;2023-04-06T06:06:24;6.23;;;4.13;;
10805;SDS011;5455;53.224;6.000;2023-04-06T06:09:05;5.47;;;4.43;;
10805;SDS011;5455;53.224;6.000;2023-04-06T06:11:38;7.23;;;4.57;;
10805;SDS011;5455;53.224;6.000;2023-04-06T06:14:06;5.73;;;4.47;;
10805;SDS011;5455;53.224;6.000;2023-04-06T06:16:37;5.67;;;4.30;;
10805;SDS011;5455;53.224;6.000;2023-04-06T06:19:07;5.23;;;4.10;;
10805;SDS011;5455;53.224;6.000;2023-04-06T06:21:36;6.60;;;4.30;;
10805;SDS011;5455;53.224;6.000;2023-04-06T06:24:05;7.47;;;4.33;;
10805;SDS011;5455;53.224;6.000;2023-04-06T06:26:33;7.27;;;4.20;;
10805;SDS011;5455;53.224;6.000;2023-04-06T06:29:06;5.93;;;4.40;;
10805;SDS011;5455;53.224;6.000;2023-04-06T06:31:37;6.40;;;4.80;;
10805;SDS011;5455;53.224;6.000;2023-04-06T06:34:04;5.60;;;4.67;;
10805;SDS011;5455;53.224;6.000;2023-04-06T06:36:34;6.90;;;5.00;;
10805;SDS011;5455;53.224;6.000;2023-04-06T06:39:05;8.07;;;5.03;;
10805;SDS011;5455;53.224;6.000;2023-04-06T06:41:32;7.47;;;4.70;;
10805;SDS011;5455;53.224;6.000;2023-04-06T06:44:00;7.30;;;4.37;;
10805;SDS011;5455;53.224;6.000;2023-04-06T06:46:28;6.60;;;4.83;;
10805;SDS011;5455;53.224;6.000;2023-04-06T06:48:55;6.07;;;4.70;;
10805;SDS011;5455;53.224;6.000;2023-04-06T06:51:24;6.20;;;4.90;;
10805;SDS011;5455;53.224;6.000;2023-04-06T06:53:51;6.93;;;4.93;;
10805;SDS011;5455;53.224;6.000;2023-04-06T06:56:19;7.33;;;5.23;;
10805;SDS011;5455;53.224;6.000;2023-04-06T06:58:46;8.33;;;5.67;;
10805;SDS011;5455;53.224;6.000;2023-04-06T07:01:14;7.73;;;5.20;;
10805;SDS011;5455;53.224;6.000;2023-04-06T07:03:41;6.63;;;4.83;;
10805;SDS011;5455;53.224;6.000;2023-04-06T07:06:09;7.63;;;5.07;;
10805;SDS011;5455;53.224;6.000;2023-04-06T07:08:38;9.47;;;5.37;;
10805;SDS011;5455;53.224;6.000;2023-04-06T07:11:06;10.23;;;5.40;;
10805;SDS011;5455;53.224;6.000;2023-04-06T07:13:33;6.73;;;4.67;;
10805;SDS011;5455;53.224;6.000;2023-04-06T07:16:01;7.43;;;5.53;;
10805;SDS011;5455;53.224;6.000;2023-04-06T07:18:28;8.43;;;4.83;;
10805;SDS011;5455;53.224;6.000;2023-04-06T07:20:58;7.70;;;4.90;;
10805;SDS011;5455;53.224;6.000;2023-04-06T07:23:25;6.43;;;4.53;;
10805;SDS011;5455;53.224;6.000;2023-04-06T07:25:52;9.77;;;5.30;;
10805;SDS011;5455;53.224;6.000;2023-04-06T07:28:20;6.83;;;5.27;;
10805;SDS011;5455;53.224;6.000;2023-04-06T07:30:47;7.10;;;4.87;;
10805;SDS011;5455;53.224;6.000;2023-04-06T07:33:15;6.60;;;4.97;;
10805;SDS011;5455;53.224;6.000;2023-04-06T07:35:42;7.77;;;4.97;;
10805;SDS011;5455;53.224;6.000;2023-04-06T07:38:10;7.30;;;5.10;;
10805;SDS011;5455;53.224;6.000;2023-04-06T07:40:38;8.10;;;5.10;;
10805;SDS011;5455;53.224;6.000;2023-04-06T07:43:06;6.47;;;4.97;;
10805;SDS011;5455;53.224;6.000;2023-04-06T07:45:34;8.17;;;4.97;;
10805;SDS011;5455;53.224;6.000;2023-04-06T07:48:02;7.83;;;5.20;;
10805;SDS011;5455;53.224;6.000;2023-04-06T07:50:31;10.87;;;5.13;;
10805;SDS011;5455;53.224;6.000;2023-04-06T07:52:58;7.50;;;5.07;;
10805;SDS011;5455;53.224;6.000;2023-04-06T07:55:26;8.57;;;5.37;;
10805;SDS011;5455;53.224;6.000;2023-04-06T07:57:53;10.00;;;6.10;;
10805;SDS011;5455;53.224;6.000;2023-04-06T08:00:20;8.00;;;5.77;;
10805;SDS011;5455;53.224;6.000;2023-04-06T08:02:48;8.37;;;5.03;;
10805;SDS011;5455;53.224;6.000;2023-04-06T08:05:18;7.30;;;5.40;;
10805;SDS011;5455;53.224;6.000;2023-04-06T08:07:45;8.03;;;5.73;;
10805;SDS011;5455;53.224;6.000;2023-04-06T08:10:12;7.53;;;5.30;;
10805;SDS011;5455;53.224;6.000;2023-04-06T08:12:39;6.50;;;5.07;;
10805;SDS011;5455;53.224;6.000;2023-04-06T08:15:06;6.57;;;5.20;;
10805;SDS011;5455;53.224;6.000;2023-04-06T08:17:33;8.33;;;5.37;;
10805;SDS011;5455;53.224;6.000;2023-04-06T08:20:01;7.13;;;5.30;;
10805;SDS011;5455;53.224;6.000;2023-04-06T08:22:31;7.10;;;5.27;;
10805;SDS011;5455;53.224;6.000;2023-04-06T08:24:58;11.60;;;6.30;;
10805;SDS011;5455;53.224;6.000;2023-04-06T08:27:25;8.50;;;5.57;;
10805;SDS011;5455;53.224;6.000;2023-04-06T08:29:52;7.13;;;5.20;;
10805;SDS011;5455;53.224;6.000;2023-04-06T08:32:20;8.63;;;4.90;;
10805;SDS011;5455;53.224;6.000;2023-04-06T08:34:47;8.73;;;5.57;;
10805;SDS011;5455;53.224;6.000;2023-04-06T08:37:14;6.53;;;5.03;;
10805;SDS011;5455;53.224;6.000;2023-04-06T08:39:41;7.07;;;5.43;;
10805;SDS011;5455;53.224;6.000;2023-04-06T08:42:10;11.67;;;5.87;;
10805;SDS011;5455;53.224;6.000;2023-04-06T08:44:43;9.30;;;5.50;;
10805;SDS011;5455;53.224;6.000;2023-04-06T08:47:11;7.20;;;5.80;;
10805;SDS011;5455;53.224;6.000;2023-04-06T08:49:38;7.77;;;5.60;;
10805;SDS011;5455;53.224;6.000;2023-04-06T08:52:06;9.30;;;5.33;;
10805;SDS011;5455;53.224;6.000;2023-04-06T08:54:34;9.63;;;5.57;;
10805;SDS011;5455;53.224;6.000;2023-04-06T08:57:01;7.77;;;5.43;;
10805;SDS011;5455;53.224;6.000;2023-04-06T08:59:29;8.13;;;5.27;;
10805;SDS011;5455;53.224;6.000;2023-04-06T09:01:57;11.47;;;6.57;;
10805;SDS011;5455;53.224;6.000;2023-04-06T09:04:26;9.57;;;6.67;;
10805;SDS011;5455;53.224;6.000;2023-04-06T09:06:53;10.67;;;6.47;;
10805;SDS011;5455;53.224;6.000;2023-04-06T09:09:20;9.73;;;7.17;;
10805;SDS011;5455;53.224;6.000;2023-04-06T09:11:50;10.00;;;6.20;;
10805;SDS011;5455;53.224;6.000;2023-04-06T09:14:37;13.47;;;7.70;;
10805;SDS011;5455;53.224;6.000;2023-04-06T09:17:05;9.87;;;6.90;;
10805;SDS011;5455;53.224;6.000;2023-04-06T09:19:32;10.53;;;7.10;;
10805;SDS011;5455;53.224;6.000;2023-04-06T09:22:05;11.10;;;6.90;;
10805;SDS011;5455;53.224;6.000;2023-04-06T09:27:16;13.23;;;7.07;;
10805;SDS011;5455;53.224;6.000;2023-04-06T09:29:43;12.57;;;7.73;;
10805;SDS011;5455;53.224;6.000;2023-04-06T09:32:11;15.30;;;8.90;;
10805;SDS011;5455;53.224;6.000;2023-04-06T09:34:38;11.00;;;6.57;;
10805;SDS011;5455;53.224;6.000;2023-04-06T09:37:18;14.90;;;8.93;;
10805;SDS011;5455;53.224;6.000;2023-04-06T09:39:46;16.53;;;7.93;;
10805;SDS011;5455;53.224;6.000;2023-04-06T09:42:23;14.00;;;8.53;;
10805;SDS011;5455;53.224;6.000;2023-04-06T09:44:52;13.57;;;8.23;;
10805;SDS011;5455;53.224;6.000;2023-04-06T09:47:19;14.27;;;8.20;;
10805;SDS011;5455;53.224;6.000;2023-04-06T09:49:47;12.50;;;8.70;;
10805;SDS011;5455;53.224;6.000;2023-04-06T09:52:16;12.30;;;8.07;;
10805;SDS011;5455;53.224;6.000;2023-04-06T09:54:46;13.40;;;8.77;;
10805;SDS011;5455;53.224;6.000;2023-04-06T10:00:05;14.60;;;8.50;;
10805;SDS011;5455;53.224;6.000;2023-04-06T10:02:44;14.90;;;8.37;;
10805;SDS011;5455;53.224;6.000;2023-04-06T10:05:18;15.50;;;8.77;;
10805;SDS011;5455;53.224;6.000;2023-04-06T10:07:50;13.30;;;8.33;;
10805;SDS011;5455;53.224;6.000;2023-04-06T10:10:27;15.23;;;8.90;;
10805;SDS011;5455;53.224;6.000;2023-04-06T10:12:55;17.60;;;8.97;;
10805;SDS011;5455;53.224;6.000;2023-04-06T10:15:23;14.30;;;8.57;;
10805;SDS011;5455;53.224;6.000;2023-04-06T10:17:51;14.50;;;10.47;;
10805;SDS011;5455;53.224;6.000;2023-04-06T10:23:19;16.47;;;9.97;;
10805;SDS011;5455;53.224;6.000;2023-04-06T10:25:56;17.13;;;11.03;;
10805;SDS011;5455;53.224;6.000;2023-04-06T10:28:26;13.43;;;8.27;;
10805;SDS011;5455;53.224;6.000;2023-04-06T10:30:58;16.53;;;8.60;;
10805;SDS011;5455;53.224;6.000;2023-04-06T10:33:27;15.90;;;9.30;;
10805;SDS011;5455;53.224;6.000;2023-04-06T10:35:56;16.07;;;9.60;;
10805;SDS011;5455;53.224;6.000;2023-04-06T10:38:33;15.23;;;10.10;;
10805;SDS011;5455;53.224;6.000;2023-04-06T10:41:06;15.57;;;9.20;;
10805;SDS011;5455;53.224;6.000;2023-04-06T10:43:38;14.03;;;9.47;;
10805;SDS011;5455;53.224;6.000;2023-04-06T10:46:10;16.07;;;9.53;;
10805;SDS011;5455;53.224;6.000;2023-04-06T10:48:41;18.33;;;10.23;;
10805;SDS011;5455;53.224;6.000;2023-04-06T10:51:13;16.70;;;8.80;;
10805;SDS011;5455;53.224;6.000;2023-04-06T10:53:42;15.20;;;9.17;;
10805;SDS011;5455;53.224;6.000;2023-04-06T10:56:15;19.20;;;10.47;;
10805;SDS011;5455;53.224;6.000;2023-04-06T10:58:46;15.40;;;9.83;;
10805;SDS011;5455;53.224;6.000;2023-04-06T11:01:15;19.80;;;11.30;;
10805;SDS011;5455;53.224;6.000;2023-04-06T11:06:17;18.07;;;10.27;;
10805;SDS011;5455;53.224;6.000;2023-04-06T11:08:45;15.67;;;10.10;;
10805;SDS011;5455;53.224;6.000;2023-04-06T11:11:13;16.30;;;9.03;;
10805;SDS011;5455;53.224;6.000;2023-04-06T11:13:45;16.80;;;10.13;;
10805;SDS011;5455;53.224;6.000;2023-04-06T11:16:18;17.33;;;9.97;;
10805;SDS011;5455;53.224;6.000;2023-04-06T11:18:49;18.83;;;11.00;;
10805;SDS011;5455;53.224;6.000;2023-04-06T11:21:20;16.83;;;9.80;;
10805;SDS011;5455;53.224;6.000;2023-04-06T11:24:04;17.70;;;10.40;;
10805;SDS011;5455;53.224;6.000;2023-04-06T11:26:40;21.00;;;11.00;;
10805;SDS011;5455;53.224;6.000;2023-04-06T11:29:21;18.17;;;9.93;;
10805;SDS011;5455;53.224;6.000;2023-04-06T11:31:52;22.07;;;12.63;;
10805;SDS011;5455;53.224;6.000;2023-04-06T11:34:21;17.10;;;9.67;;
10805;SDS011;5455;53.224;6.000;2023-04-06T11:37:00;19.03;;;10.50;;
10805;SDS011;5455;53.224;6.000;2023-04-06T11:39:38;17.87;;;11.40;;
10805;SDS011;5455;53.224;6.000;2023-04-06T11:42:07;17.23;;;11.43;;
10805;SDS011;5455;53.224;6.000;2023-04-06T11:44:39;19.03;;;10.77;;
10805;SDS011;5455;53.224;6.000;2023-04-06T11:47:12;18.43;;;11.40;;
10805;SDS011;5455;53.224;6.000;2023-04-06T11:49:42;20.30;;;11.17;;
10805;SDS011;5455;53.224;6.000;2023-04-06T11:52:18;19.47;;;11.03;;
10805;SDS011;5455;53.224;6.000;2023-04-06T11:54:46;21.10;;;12.67;;
10805;SDS011;5455;53.224;6.000;2023-04-06T11:57:14;22.43;;;12.77;;
10805;SDS011;5455;53.224;6.000;2023-04-06T11:59:42;20.83;;;11.83;;
10805;SDS011;5455;53.224;6.000;2023-04-06T12:02:09;18.07;;;11.23;;
10805;SDS011;5455;53.224;6.000;2023-04-06T12:04:37;21.83;;;12.90;;
10805;SDS011;5455;53.224;6.000;2023-04-06T12:07:04;20.17;;;11.67;;
10805;SDS011;5455;53.224;6.000;2023-04-06T12:09:32;19.87;;;11.10;;
10805;SDS011;5455;53.224;6.000;2023-04-06T12:12:01;17.60;;;10.50;;
10805;SDS011;5455;53.224;6.000;2023-04-06T12:14:28;16.97;;;10.27;;
10805;SDS011;5455;53.224;6.000;2023-04-06T12:16:57;16.27;;;10.27;;
10805;SDS011;5455;53.224;6.000;2023-04-06T12:19:24;16.47;;;9.80;;
10805;SDS011;5455;53.224;6.000;2023-04-06T12:21:55;16.27;;;9.87;;
10805;SDS011;5455;53.224;6.000;2023-04-06T12:24:24;14.20;;;8.80;;
10805;SDS011;5455;53.224;6.000;2023-04-06T12:26:51;14.63;;;8.40;;
10805;SDS011;5455;53.224;6.000;2023-04-06T12:29:32;17.57;;;9.10;;
10805;SDS011;5455;53.224;6.000;2023-04-06T12:31:59;17.03;;;9.43;;
10805;SDS011;5455;53.224;6.000;2023-04-06T12:34:28;14.63;;;9.20;;
10805;SDS011;5455;53.224;6.000;2023-04-06T12:36:55;16.07;;;8.80;;
10805;SDS011;5455;53.224;6.000;2023-04-06T12:39:23;14.20;;;7.43;;
10805;SDS011;5455;53.224;6.000;2023-04-06T12:41:50;14.40;;;8.67;;
10805;SDS011;5455;53.224;6.000;2023-04-06T12:44:17;15.50;;;9.20;;
10805;SDS011;5455;53.224;6.000;2023-04-06T12:46:44;15.77;;;9.27;;
10805;SDS011;5455;53.224;6.000;2023-04-06T12:49:11;11.67;;;7.70;;
10805;SDS011;5455;53.224;6.000;2023-04-06T12:51:38;13.63;;;8.63;;
10805;SDS011;5455;53.224;6.000;2023-04-06T12:54:05;16.20;;;8.93;;
10805;SDS011;5455;53.224;6.000;2023-04-06T12:56:33;16.90;;;9.50;;
10805;SDS011;5455;53.224;6.000;2023-04-06T12:59:00;15.73;;;8.60;;
10805;SDS011;5455;53.224;6.000;2023-04-06T13:01:27;16.77;;;8.37;;
10805;SDS011;5455;53.224;6.000;2023-04-06T13:03:56;11.53;;;8.13;;
10805;SDS011;5455;53.224;6.000;2023-04-06T13:06:24;16.13;;;7.93;;
10805;SDS011;5455;53.224;6.000;2023-04-06T13:08:54;15.13;;;7.33;;
10805;SDS011;5455;53.224;6.000;2023-04-06T13:11:21;19.87;;;10.50;;
10805;SDS011;5455;53.224;6.000;2023-04-06T13:13:53;10.97;;;7.37;;
10805;SDS011;5455;53.224;6.000;2023-04-06T13:16:20;12.87;;;6.97;;
10805;SDS011;5455;53.224;6.000;2023-04-06T13:18:47;9.87;;;6.73;;
10805;SDS011;5455;53.224;6.000;2023-04-06T13:21:14;12.57;;;7.67;;
10805;SDS011;5455;53.224;6.000;2023-04-06T13:23:43;9.83;;;6.27;;
10805;SDS011;5455;53.224;6.000;2023-04-06T13:26:10;9.23;;;6.20;;
10805;SDS011;5455;53.224;6.000;2023-04-06T13:28:40;9.67;;;6.70;;
10805;SDS011;5455;53.224;6.000;2023-04-06T13:31:08;11.00;;;7.00;;
10805;SDS011;5455;53.224;6.000;2023-04-06T13:33:36;11.13;;;5.77;;
10805;SDS011;5455;53.224;6.000;2023-04-06T13:36:04;11.07;;;6.77;;
10805;SDS011;5455;53.224;6.000;2023-04-06T13:38:33;10.57;;;5.77;;
10805;SDS011;5455;53.224;6.000;2023-04-06T13:41:00;11.00;;;5.63;;
10805;SDS011;5455;53.224;6.000;2023-04-06T13:43:27;11.97;;;6.97;;
10805;SDS011;5455;53.224;6.000;2023-04-06T13:45:54;9.33;;;6.47;;
10805;SDS011;5455;53.224;6.000;2023-04-06T13:48:25;10.57;;;6.93;;
10805;SDS011;5455;53.224;6.000;2023-04-06T13:50:55;10.57;;;5.97;;
10805;SDS011;5455;53.224;6.000;2023-04-06T13:53:22;11.97;;;6.97;;
10805;SDS011;5455;53.224;6.000;2023-04-06T13:55:52;10.67;;;6.90;;
10805;SDS011;5455;53.224;6.000;2023-04-06T13:58:21;11.30;;;6.43;;
10805;SDS011;5455;53.224;6.000;2023-04-06T14:00:48;12.67;;;8.27;;
10805;SDS011;5455;53.224;6.000;2023-04-06T14:03:16;14.43;;;9.10;;
10805;SDS011;5455;53.224;6.000;2023-04-06T14:05:44;12.33;;;7.23;;
10805;SDS011;5455;53.224;6.000;2023-04-06T14:08:11;14.43;;;8.13;;
10805;SDS011;5455;53.224;6.000;2023-04-06T14:10:39;12.43;;;7.87;;
10805;SDS011;5455;53.224;6.000;2023-04-06T14:13:08;12.13;;;8.00;;
10805;SDS011;5455;53.224;6.000;2023-04-06T14:15:36;12.80;;;7.40;;
10805;SDS011;5455;53.224;6.000;2023-04-06T14:18:03;12.20;;;8.47;;
10805;SDS011;5455;53.224;6.000;2023-04-06T14:20:33;11.07;;;7.63;;
10805;SDS011;5455;53.224;6.000;2023-04-06T14:23:00;13.77;;;8.30;;
10805;SDS011;5455;53.224;6.000;2023-04-06T14:25:28;12.13;;;8.03;;
10805;SDS011;5455;53.224;6.000;2023-04-06T14:27:57;11.90;;;7.43;;
10805;SDS011;5455;53.224;6.000;2023-04-06T14:30:24;14.20;;;8.37;;
10805;SDS011;5455;53.224;6.000;2023-04-06T14:32:51;11.43;;;7.33;;
10805;SDS011;5455;53.224;6.000;2023-04-06T14:35:18;10.13;;;7.20;;
10805;SDS011;5455;53.224;6.000;2023-04-06T14:37:45;13.83;;;7.40;;
10805;SDS011;5455;53.224;6.000;2023-04-06T14:40:13;10.87;;;7.30;;
10805;SDS011;5455;53.224;6.000;2023-04-06T14:42:40;11.97;;;7.97;;
10805;SDS011;5455;53.224;6.000;2023-04-06T14:45:07;10.63;;;6.87;;
10805;SDS011;5455;53.224;6.000;2023-04-06T14:47:35;10.50;;;7.70;;
10805;SDS011;5455;53.224;6.000;2023-04-06T14:50:02;11.17;;;7.17;;
10805;SDS011;5455;53.224;6.000;2023-04-06T14:52:29;13.87;;;8.03;;
10805;SDS011;5455;53.224;6.000;2023-04-06T14:54:58;10.77;;;7.97;;
10805;SDS011;5455;53.224;6.000;2023-04-06T14:57:25;11.10;;;7.97;;
10805;SDS011;5455;53.224;6.000;2023-04-06T14:59:53;10.47;;;7.20;;
10805;SDS011;5455;53.224;6.000;2023-04-06T15:02:20;10.47;;;6.30;;
10805;SDS011;5455;53.224;6.000;2023-04-06T15:04:48;9.50;;;6.77;;
10805;SDS011;5455;53.224;6.000;2023-04-06T15:07:17;11.03;;;7.90;;
10805;SDS011;5455;53.224;6.000;2023-04-06T15:09:43;11.47;;;7.13;;
10805;SDS011;5455;53.224;6.000;2023-04-06T15:12:10;11.90;;;7.77;;
10805;SDS011;5455;53.224;6.000;2023-04-06T15:14:38;12.10;;;8.13;;
10805;SDS011;5455;53.224;6.000;2023-04-06T15:17:08;13.57;;;9.07;;
10805;SDS011;5455;53.224;6.000;2023-04-06T15:19:35;12.03;;;8.83;;